Time;durP1;ratioP1;P1;durP2;ratioP2;P2;SDS_P1;SDS_P2;PMS_P1;PMS_P2;Temp;Humidity;BMP_temperature;BMP_pressure;BME280_temperature;BME280_humidity;BME280_pressure;Samples;Min_cycle;Max_cycle;Signal;HPM_P1;HPM_P2
2022/03/27 00:00:19;;;;;;;;;;;;;;;18.66;45.61;103290.63;5104237;28;19908;-59
2022/03/27 00:02:44;;;;;;;;;;;;;;;18.67;45.56;103291.50;5103696;28;19973;-59
2022/03/27 00:05:10;;;;;;;;;;;;;;;18.66;45.51;103292.47;5104042;28;19915;-59
2022/03/27 00:07:35;;;;;;;;;;;;;;;18.66;45.51;103292.47;5103971;28;20568;-59
2022/03/27 00:10:00;;;;;;;;;;;;;;;18.66;45.74;103287.09;5103567;28;19915;-59
2022/03/27 00:12:25;;;;;;;;;;;;;;;18.62;45.44;103278.34;5102834;28;20008;-59
2022/03/27 00:14:50;;;;;;;;;;;;;;;18.65;45.68;103277.28;5113295;28;19912;-59
2022/03/27 00:17:15;;;;;;;;;;;;;;;18.64;45.53;103281.78;5124113;28;19911;-59
2022/03/27 00:19:41;;;;;;;;;;;;;;;18.65;45.42;103274.59;5108606;28;19916;-59
2022/03/27 00:22:06;;;;;;;;;;;;;;;18.65;45.37;103277.28;5127931;28;19911;-59
2022/03/27 00:24:31;;;;;;;;;;;;;;;18.64;45.66;103278.22;5127916;28;19947;-59
2022/03/27 00:26:56;;;;;;;;;;;;;;;18.63;45.40;103282.75;5127381;28;19938;-59
2022/03/27 00:29:22;;;;;;;;;;;;;;;18.63;45.42;103279.22;5127845;28;19911;-59
2022/03/27 00:31:47;;;;;;;;;;;;;;;18.62;45.40;103278.34;5127777;28;19915;-59
2022/03/27 00:34:12;;;;;;;;;;;;;;;18.63;45.39;103276.50;5127991;28;19998;-58
2022/03/27 00:36:37;;;;;;;;;;;;;;;18.63;45.52;103279.22;5126509;28;19978;-59
2022/03/27 00:39:03;;;;;;;;;;;;;;;18.61;45.52;103279.34;5127705;28;19904;-59
2022/03/27 00:41:30;;;;;;;;;;;;;;;18.62;45.37;103282.88;5127387;27;19908;-59
2022/03/27 00:43:55;;;;;;;;;;;;;;;18.61;45.45;103273.94;5127495;28;19907;-59
2022/03/27 00:46:20;;;;;;;;;;;;;;;18.61;45.57;103273.09;5121168;28;19971;-59
2022/03/27 00:48:45;;;;;;;;;;;;;;;18.60;45.17;103277.59;5127423;28;19907;-57
2022/03/27 00:51:10;;;;;;;;;;;;;;;18.59;45.37;103273.19;5126169;28;19983;-59
2022/03/27 00:53:36;;;;;;;;;;;;;;;18.59;45.21;103269.63;5127765;28;19907;-59
2022/03/27 00:56:01;;;;;;;;;;;;;;;18.59;45.32;103272.31;5127073;28;19908;-59
2022/03/27 00:58:26;;;;;;;;;;;;;;;18.58;45.23;103265.22;5127029;28;19915;-59
2022/03/27 01:00:56;;;;;;;;;;;;;;;18.58;45.22;103267.91;5127585;28;20340;-59
2022/03/27 01:03:26;;;;;;;;;;;;;;;18.57;45.15;103267.06;5127391;28;19971;-59
2022/03/27 01:05:52;;;;;;;;;;;;;;;18.56;45.24;103276.06;5127196;28;20404;-59
2022/03/27 01:09:35;;;;;;;;;;;;;;;18.56;45.08;103265.31;5127005;28;20334;-59
2022/03/27 01:11:08;;;;;;;;;;;;;;;18.56;45.21;103268.00;5126377;28;19908;-59
2022/03/27 01:13:35;;;;;;;;;;;;;;;18.56;45.22;103276.06;5126869;28;19908;-59
2022/03/27 01:16:00;;;;;;;;;;;;;;;18.55;45.32;103271.66;5126735;28;19933;-59
2022/03/27 01:18:26;;;;;;;;;;;;;;;18.55;44.97;103263.59;5125335;28;19912;-59
2022/03/27 01:20:53;;;;;;;;;;;;;;;18.54;45.06;103259.19;5125988;28;19992;-59
2022/03/27 01:23:18;;;;;;;;;;;;;;;18.54;45.19;103264.56;5125834;28;19916;-59
2022/03/27 01:25:43;;;;;;;;;;;;;;;18.53;45.07;103262.84;5126349;28;20010;-59
2022/03/27 01:28:10;;;;;;;;;;;;;;;18.53;45.07;103260.16;5126472;28;19907;-59
2022/03/27 01:30:35;;;;;;;;;;;;;;;18.53;45.06;103260.16;5126467;28;19935;-59
2022/03/27 01:33:00;;;;;;;;;;;;;;;18.53;45.15;103259.28;5126245;28;20407;-59
2022/03/27 01:35:26;;;;;;;;;;;;;;;18.52;45.06;103262.94;5126712;28;20391;-57
2022/03/27 01:37:51;;;;;;;;;;;;;;;18.51;44.95;103264.78;5108440;28;20013;-59
2022/03/27 01:40:17;;;;;;;;;;;;;;;18.52;45.08;103261.13;5126507;28;19915;-59
2022/03/27 01:42:42;;;;;;;;;;;;;;;18.52;45.08;103262.94;5125635;28;19918;-59
2022/03/27 01:45:08;;;;;;;;;;;;;;;18.50;45.03;103260.38;5124549;28;19911;-59
2022/03/27 01:47:33;;;;;;;;;;;;;;;18.51;44.83;103262.09;5104814;28;19919;-59
2022/03/27 01:50:00;;;;;;;;;;;;;;;18.49;44.89;103253.25;5106095;28;19972;-59
2022/03/27 01:52:25;;;;;;;;;;;;;;;18.50;44.83;103260.38;5105869;28;19912;-59
2022/03/27 01:54:50;;;;;;;;;;;;;;;18.49;44.95;103262.19;5106113;28;19915;-59
2022/03/27 01:57:15;;;;;;;;;;;;;;;18.48;44.83;103257.78;5105353;28;19908;-57
2022/03/27 01:59:41;;;;;;;;;;;;;;;18.48;44.89;103254.25;5106033;28;19965;-59
2022/03/27 02:02:06;;;;;;;;;;;;;;;18.48;44.81;103254.25;5104278;28;20517;-59
2022/03/27 02:04:31;;;;;;;;;;;;;;;18.47;45.01;103253.34;5105880;28;19915;-60
2022/03/27 02:06:56;;;;;;;;;;;;;;;18.47;44.71;103257.88;5105664;28;19934;-59
2022/03/27 02:09:21;;;;;;;;;;;;;;;18.47;44.96;103260.56;5104147;28;19918;-59
2022/03/27 02:11:47;;;;;;;;;;;;;;;18.46;44.94;103257.03;5104859;28;19916;-59
2022/03/27 02:14:12;;;;;;;;;;;;;;;18.45;44.76;103252.59;5110572;28;19937;-60
2022/03/27 02:16:37;;;;;;;;;;;;;;;18.45;44.60;103257.13;5124124;28;19918;-59
2022/03/27 02:19:06;;;;;;;;;;;;;;;18.45;44.64;103251.75;5126207;28;19960;-59
2022/03/27 02:21:31;;;;;;;;;;;;;;;18.43;44.89;103250.97;5125832;28;19914;-59
2022/03/27 02:23:56;;;;;;;;;;;;;;;18.43;44.85;103253.69;5125872;28;19915;-59
2022/03/27 02:26:21;;;;;;;;;;;;;;;18.42;44.70;103251.97;5125165;28;19917;-59
2022/03/27 02:28:46;;;;;;;;;;;;;;;18.42;44.73;103260.03;5125082;28;19915;-59
2022/03/27 02:31:13;;;;;;;;;;;;;;;18.42;44.86;103255.50;5124685;28;19915;-59
2022/03/27 02:33:38;;;;;;;;;;;;;;;18.41;44.84;103248.41;5125448;28;19907;-59
2022/03/27 02:36:08;;;;;;;;;;;;;;;18.41;44.82;103252.94;5125382;28;20261;-59
2022/03/27 02:38:34;;;;;;;;;;;;;;;18.41;44.87;103252.94;5125540;28;20374;-59
2022/03/27 02:40:59;;;;;;;;;;;;;;;18.40;44.68;103256.59;5125035;28;19908;-60
2022/03/27 02:43:24;;;;;;;;;;;;;;;18.39;44.59;103247.66;5124102;28;19908;-59
2022/03/27 02:45:50;;;;;;;;;;;;;;;18.38;44.79;103248.63;5125167;28;19918;-60
2022/03/27 02:48:15;;;;;;;;;;;;;;;18.39;44.61;103257.56;5124013;28;19914;-60
2022/03/27 02:50:43;;;;;;;;;;;;;;;18.37;44.44;103248.75;5124981;28;19954;-59
2022/03/27 02:53:08;;;;;;;;;;;;;;;18.37;44.57;103241.50;5125460;28;19912;-59
2022/03/27 02:55:33;;;;;;;;;;;;;;;18.37;44.63;103238.81;5124712;28;19914;-59
2022/03/27 02:57:59;;;;;;;;;;;;;;;18.37;44.48;103252.28;5124815;28;19915;-59
2022/03/27 03:00:25;;;;;;;;;;;;;;;18.35;44.65;103240.78;5125531;28;19911;-59
2022/03/27 03:02:51;;;;;;;;;;;;;;;18.36;44.78;103244.31;5125040;28;19908;-59
2022/03/27 03:05:19;;;;;;;;;;;;;;;18.35;44.59;103231.81;5124077;28;20572;-60
2022/03/27 03:07:45;;;;;;;;;;;;;;;18.35;44.48;103239.88;5124822;28;19907;-60
2022/03/27 03:10:10;;;;;;;;;;;;;;;18.34;44.71;103243.56;5124705;28;20023;-60
2022/03/27 03:12:35;;;;;;;;;;;;;;;18.33;44.71;103242.69;5123979;28;19911;-59
2022/03/27 03:15:01;;;;;;;;;;;;;;;18.33;44.57;103248.09;5124435;28;19931;-60
2022/03/27 03:17:27;;;;;;;;;;;;;;;18.32;44.72;103246.38;5123396;28;19908;-59
2022/03/27 03:19:52;;;;;;;;;;;;;;;18.32;44.54;103243.69;5123685;28;19914;-60
2022/03/27 03:22:18;;;;;;;;;;;;;;;18.31;44.48;103236.56;5124627;28;19920;-59
2022/03/27 03:24:43;;;;;;;;;;;;;;;18.31;44.42;103239.28;5123288;28;20052;-60
2022/03/27 03:27:08;;;;;;;;;;;;;;;18.30;44.39;103232.13;5124016;28;20352;-59
2022/03/27 03:29:33;;;;;;;;;;;;;;;18.30;44.68;103231.28;5124240;28;19996;-59
2022/03/27 03:31:58;;;;;;;;;;;;;;;18.29;44.40;103235.81;5124260;28;19911;-59
2022/03/27 03:34:23;;;;;;;;;;;;;;;18.29;44.42;103233.09;5120007;28;19912;-60
2022/03/27 03:36:49;;;;;;;;;;;;;;;18.29;44.42;103230.41;5103794;28;19931;-59
2022/03/27 03:39:14;;;;;;;;;;;;;;;18.29;44.39;103241.19;5102954;28;19966;-59
2022/03/27 03:41:39;;;;;;;;;;;;;;;18.29;44.33;103234.94;5103517;28;19957;-59
2022/03/27 03:44:04;;;;;;;;;;;;;;;18.27;44.56;103235.06;5122529;28;19919;-59
2022/03/27 03:46:29;;;;;;;;;;;;;;;18.28;44.26;103235.94;5124677;28;19942;-59
2022/03/27 03:48:55;;;;;;;;;;;;;;;18.27;44.31;103236.91;5124374;28;19915;-60
2022/03/27 03:51:21;;;;;;;;;;;;;;;18.26;44.35;103232.47;5124220;28;20301;-59
2022/03/27 03:53:46;;;;;;;;;;;;;;;18.26;44.49;103235.16;5125830;28;19946;-59
2022/03/27 03:56:11;;;;;;;;;;;;;;;18.24;44.46;103233.44;5128302;28;19907;-59
2022/03/27 03:58:37;;;;;;;;;;;;;;;18.24;44.45;103243.34;5128075;28;19914;-60
2022/03/27 04:01:03;;;;;;;;;;;;;;;18.24;44.36;103237.97;5127448;28;19938;-60
2022/03/27 04:03:28;;;;;;;;;;;;;;;18.23;44.43;103236.25;5128707;28;20257;-60
2022/03/27 04:05:53;;;;;;;;;;;;;;;18.23;44.33;103241.63;5127048;28;19946;-59
2022/03/27 04:08:19;;;;;;;;;;;;;;;18.23;44.45;103233.56;5128294;28;20474;-59
2022/03/27 04:10:44;;;;;;;;;;;;;;;18.23;44.36;103236.25;5127739;28;19907;-59
2022/03/27 04:13:12;;;;;;;;;;;;;;;18.22;44.49;103240.78;5127800;28;20013;-59
2022/03/27 04:15:38;;;;;;;;;;;;;;;18.20;44.21;103231.94;5127996;28;19957;-60
2022/03/27 04:18:04;;;;;;;;;;;;;;;18.20;44.20;103233.75;5128203;28;19919;-59
2022/03/27 04:20:29;;;;;;;;;;;;;;;18.20;44.29;103231.06;5128337;28;19911;-59
2022/03/27 04:22:54;;;;;;;;;;;;;;;18.20;44.20;103233.75;5128208;28;19915;-59
2022/03/27 04:25:19;;;;;;;;;;;;;;;18.18;44.36;103236.56;5126879;28;19908;-59
2022/03/27 04:27:44;;;;;;;;;;;;;;;18.18;44.16;103239.25;5126943;28;20035;-59
2022/03/27 04:30:10;;;;;;;;;;;;;;;18.17;44.20;103242.91;5128333;28;20373;-59
2022/03/27 04:32:38;;;;;;;;;;;;;;;18.18;44.22;103247.34;5127907;28;19919;-59
2022/03/27 04:35:03;;;;;;;;;;;;;;;18.17;44.15;103250.13;5127798;28;19912;-59
2022/03/27 04:37:29;;;;;;;;;;;;;;;18.16;44.29;103251.97;5127921;28;20253;-60
2022/03/27 04:40:01;;;;;;;;;;;;;;;18.16;44.11;103254.66;5127768;27;19914;-59
2022/03/27 04:42:26;;;;;;;;;;;;;;;18.15;44.09;103261.00;5125785;28;19929;-58
2022/03/27 04:44:52;;;;;;;;;;;;;;;18.15;44.03;103254.78;5127451;28;19979;-59
2022/03/27 04:47:17;;;;;;;;;;;;;;;18.14;44.15;103262.00;5127460;28;20443;-59
2022/03/27 04:49:42;;;;;;;;;;;;;;;18.14;44.11;103264.69;5127603;28;20484;-59
2022/03/27 04:52:07;;;;;;;;;;;;;;;18.13;44.10;103260.25;5120621;28;19916;-59
2022/03/27 04:54:34;;;;;;;;;;;;;;;18.14;44.06;103263.81;5107171;28;19912;-59
2022/03/27 04:56:59;;;;;;;;;;;;;;;18.12;44.23;103257.66;5122109;28;20414;-59
2022/03/27 04:59:25;;;;;;;;;;;;;;;18.11;43.96;103261.34;5126471;28;19911;-58
2022/03/27 05:01:50;;;;;;;;;;;;;;;18.11;44.19;103258.63;5126700;28;20002;-58
2022/03/27 05:04:15;;;;;;;;;;;;;;;18.11;44.06;103253.25;5125575;28;19908;-58
2022/03/27 05:06:40;;;;;;;;;;;;;;;18.11;44.18;103266.72;5122161;28;19908;-58
2022/03/27 05:09:06;;;;;;;;;;;;;;;18.10;43.99;103257.78;5123291;28;19936;-58
2022/03/27 05:11:31;;;;;;;;;;;;;;;18.10;44.04;103268.56;5126241;28;19919;-58
2022/03/27 05:13:56;;;;;;;;;;;;;;;18.09;44.04;103266.81;5123496;28;19918;-59
2022/03/27 05:16:21;;;;;;;;;;;;;;;18.08;44.20;103259.69;5126991;28;19918;-59
2022/03/27 05:18:47;;;;;;;;;;;;;;;18.08;44.08;103262.41;5123478;28;19992;-58
2022/03/27 05:21:12;;;;;;;;;;;;;;;18.08;44.02;103267.78;5124336;28;19914;-58
2022/03/27 05:23:37;;;;;;;;;;;;;;;18.07;44.22;103265.19;5122884;28;20056;-58
2022/03/27 05:26:02;;;;;;;;;;;;;;;18.07;44.12;103262.50;5125954;28;19916;-59
2022/03/27 05:28:27;;;;;;;;;;;;;;;18.06;44.03;103261.66;5126438;28;19919;-59
2022/03/27 05:30:55;;;;;;;;;;;;;;;18.06;44.09;103264.34;5126371;28;19912;-58
2022/03/27 05:33:20;;;;;;;;;;;;;;;18.07;44.28;103262.50;5119959;28;19919;-58
2022/03/27 05:35:45;;;;;;;;;;;;;;;18.07;44.26;103260.69;5124613;28;19908;-58
2022/03/27 05:38:10;;;;;;;;;;;;;;;18.07;44.32;103262.50;5123403;28;19908;-58
2022/03/27 05:40:36;;;;;;;;;;;;;;;18.07;44.32;103258.00;5123088;28;19908;-58
2022/03/27 05:43:01;;;;;;;;;;;;;;;18.07;44.45;103263.38;5125883;28;19911;-59
2022/03/27 05:45:27;;;;;;;;;;;;;;;18.07;44.32;103263.38;5115567;28;19911;-58
2022/03/27 05:47:52;;;;;;;;;;;;;;;18.07;44.60;103266.06;5125987;28;19919;-59
2022/03/27 05:50:18;;;;;;;;;;;;;;;18.07;44.71;103262.50;5125919;28;20002;-58
2022/03/27 05:52:44;;;;;;;;;;;;;;;18.06;44.55;103258.09;5124544;28;19973;-59
2022/03/27 05:55:09;;;;;;;;;;;;;;;18.06;44.69;103266.19;5124838;28;19908;-60
2022/03/27 05:57:34;;;;;;;;;;;;;;;18.06;44.78;103269.72;5116433;28;19912;-58
2022/03/27 06:00:00;;;;;;;;;;;;;;;18.07;44.84;103267.91;5125974;28;19915;-59
2022/03/27 06:02:25;;;;;;;;;;;;;;;18.05;44.54;103269.81;5120072;28;19914;-59
2022/03/27 06:04:51;;;;;;;;;;;;;;;18.06;44.66;103276.94;5120685;28;19907;-59
2022/03/27 06:07:16;;;;;;;;;;;;;;;18.03;44.74;103272.63;5118276;28;19919;-57
2022/03/27 06:09:41;;;;;;;;;;;;;;;18.04;44.70;103278.88;5112080;28;19922;-55
2022/03/27 06:12:06;;;;;;;;;;;;;;;18.03;44.95;103277.16;5117964;28;20030;-57
2022/03/27 06:14:32;;;;;;;;;;;;;;;18.03;44.74;103278.00;5122088;28;19912;-56
2022/03/27 06:16:57;;;;;;;;;;;;;;;18.02;44.86;103281.69;5118117;28;20010;-55
2022/03/27 06:19:23;;;;;;;;;;;;;;;18.02;44.81;103283.50;5117498;28;19954;-56
2022/03/27 06:21:48;;;;;;;;;;;;;;;18.02;44.84;103280.81;5118401;28;19935;-56
2022/03/27 06:24:13;;;;;;;;;;;;;;;18.02;44.96;103280.81;5114423;28;19939;-60
2022/03/27 06:26:39;;;;;;;;;;;;;;;18.01;44.93;103279.97;5112961;28;19950;-60
2022/03/27 06:29:04;;;;;;;;;;;;;;;18.02;44.95;103283.50;5114790;28;19918;-60
2022/03/27 06:31:29;;;;;;;;;;;;;;;18.02;44.94;103284.38;5123324;28;20069;-60
2022/03/27 06:33:54;;;;;;;;;;;;;;;18.02;45.14;103278.13;5119345;28;19980;-59
2022/03/27 06:36:20;;;;;;;;;;;;;;;18.02;45.16;103284.38;5113086;28;19923;-59
2022/03/27 06:38:45;;;;;;;;;;;;;;;18.02;45.30;103280.81;5113025;28;20323;-56
2022/03/27 06:41:10;;;;;;;;;;;;;;;18.01;45.46;103284.44;5111669;28;19947;-59
2022/03/27 06:43:36;;;;;;;;;;;;;;;18.01;45.57;103284.44;5116704;28;19908;-56
2022/03/27 06:46:01;;;;;;;;;;;;;;;17.98;45.42;103291.78;5109614;28;19908;-60
2022/03/27 06:48:27;;;;;;;;;;;;;;;17.99;45.69;103292.66;5114702;28;20354;-58
2022/03/27 06:50:52;;;;;;;;;;;;;;;17.97;45.83;103284.69;5108376;28;19912;-60
2022/03/27 06:53:20;;;;;;;;;;;;;;;17.97;45.64;103276.59;5110451;28;20002;-59
2022/03/27 06:55:46;;;;;;;;;;;;;;;17.95;45.78;103281.22;5114526;28;19912;-53
2022/03/27 06:58:11;;;;;;;;;;;;;;;17.94;45.72;103278.63;5119502;28;19908;-53
2022/03/27 07:03:20;;;;;;;;;;;;;;;17.94;45.91;103281.34;5110843;28;19929;-55
2022/03/27 07:05:46;;;;;;;;;;;;;;;17.93;45.81;103298.47;5116535;28;19951;-54
2022/03/27 07:08:15;;;;;;;;;;;;;;;17.93;45.74;103287.69;5118020;28;19931;-57
2022/03/27 07:10:41;;;;;;;;;;;;;;;17.91;45.93;103279.69;5111593;28;20006;-56
2022/03/27 07:13:10;;;;;;;;;;;;;;;17.91;45.73;103287.78;5121752;28;19915;-60
2022/03/27 07:15:38;;;;;;;;;;;;;;;17.92;45.79;103292.19;5121598;28;19935;-60
2022/03/27 07:18:03;;;;;;;;;;;;;;;17.91;45.82;103285.09;5115738;28;19912;-60
2022/03/27 07:20:29;;;;;;;;;;;;;;;17.91;45.78;103289.59;5114759;28;19914;-60
2022/03/27 07:22:55;;;;;;;;;;;;;;;17.91;46.01;103285.09;5122189;28;20283;-60
2022/03/27 07:25:21;;;;;;;;;;;;;;;17.91;46.04;103289.59;5114503;28;19912;-58
2022/03/27 07:27:48;;;;;;;;;;;;;;;17.90;46.01;103285.19;5117049;28;19919;-59
2022/03/27 07:30:13;;;;;;;;;;;;;;;17.90;45.96;103291.44;5116190;28;19911;-59
2022/03/27 07:32:39;;;;;;;;;;;;;;;17.90;46.16;103288.75;5112350;28;19924;-59
2022/03/27 07:35:05;;;;;;;;;;;;;;;17.91;45.83;103289.59;5119196;28;20000;-59
2022/03/27 07:37:32;;;;;;;;;;;;;;;17.91;45.94;103284.22;5115964;28;19911;-59
2022/03/27 07:39:58;;;;;;;;;;;;;;;17.91;46.05;103290.47;5107742;28;19953;-57
2022/03/27 07:42:23;;;;;;;;;;;;;;;17.91;46.04;103278.84;5117453;28;19911;-57
2022/03/27 07:44:48;;;;;;;;;;;;;;;17.92;46.01;103285.94;5114849;28;19931;-57
2022/03/27 07:47:13;;;;;;;;;;;;;;;17.90;45.85;103279.81;5111756;28;19968;-57
2022/03/27 07:49:38;;;;;;;;;;;;;;;17.90;46.03;103279.81;5107872;28;19912;-58
2022/03/27 07:52:06;;;;;;;;;;;;;;;17.90;45.68;103279.81;5114253;28;19934;-57
2022/03/27 07:54:31;;;;;;;;;;;;;;;17.90;45.96;103274.44;5119052;28;19916;-56
2022/03/27 07:56:56;;;;;;;;;;;;;;;17.89;46.06;103273.56;5117050;28;19976;-56
2022/03/27 07:59:22;;;;;;;;;;;;;;;17.90;46.01;103285.19;5112255;28;19915;-57
2022/03/27 08:01:48;;;;;;;;;;;;;;;17.90;45.92;103279.81;5116725;28;19915;-57
2022/03/27 08:04:13;;;;;;;;;;;;;;;17.92;45.78;103283.25;5117912;28;19915;-57
2022/03/27 08:06:38;;;;;;;;;;;;;;;17.92;45.88;103275.19;5117175;28;19914;-57
2022/03/27 08:09:04;;;;;;;;;;;;;;;17.93;45.59;103280.47;5111501;28;19922;-56
2022/03/27 08:11:29;;;;;;;;;;;;;;;17.95;45.59;103278.53;5114882;28;19919;-56
2022/03/27 08:13:54;;;;;;;;;;;;;;;17.96;45.58;103271.31;5116799;28;20010;-56
2022/03/27 08:16:20;;;;;;;;;;;;;;;17.97;45.64;103278.44;5114752;28;19971;-57
2022/03/27 08:18:45;;;;;;;;;;;;;;;17.98;45.71;103275.63;5108923;28;19938;-56
2022/03/27 08:21:10;;;;;;;;;;;;;;;17.98;45.68;103275.63;5114918;28;19911;-57
2022/03/27 08:23:36;;;;;;;;;;;;;;;17.99;45.96;103271.97;5117692;28;19955;-57
2022/03/27 08:28:45;;;;;;;;;;;;;;;18.01;45.83;103266.50;5113038;28;19980;-57
2022/03/27 08:31:10;;;;;;;;;;;;;;;18.01;45.79;103271.88;5115491;28;20353;-59
2022/03/27 08:33:35;;;;;;;;;;;;;;;18.03;45.80;103275.31;5108315;28;19907;-58
2022/03/27 08:36:01;;;;;;;;;;;;;;;18.03;45.79;103279.84;5107838;28;19908;-57
2022/03/27 08:38:26;;;;;;;;;;;;;;;18.05;45.87;103277.88;5108625;28;20593;-58
2022/03/27 08:40:53;;;;;;;;;;;;;;;18.06;45.82;103287.72;5120089;28;20057;-59
2022/03/27 08:43:18;;;;;;;;;;;;;;;18.07;45.66;103287.59;5122002;28;19913;-52
2022/03/27 08:45:44;;;;;;;;;;;;;;;18.08;45.63;103292.00;5120742;28;19938;-54
2022/03/27 08:48:10;;;;;;;;;;;;;;;18.08;45.63;103283.94;5114214;28;19911;-55
2022/03/27 08:50:39;;;;;;;;;;;;;;;18.09;45.54;103291.03;5124305;28;19907;-54
2022/03/27 08:53:05;;;;;;;;;;;;;;;18.10;45.75;103291.94;5124343;28;19919;-54
2022/03/27 08:55:33;;;;;;;;;;;;;;;18.11;45.76;103293.66;5122442;28;19912;-53
2022/03/27 08:58:00;;;;;;;;;;;;;;;18.12;45.80;103296.22;5123414;28;19923;-50
2022/03/27 09:00:29;;;;;;;;;;;;;;;18.12;45.75;103290.84;5127362;28;20031;-52
2022/03/27 09:02:54;;;;;;;;;;;;;;;18.14;45.27;103294.28;5127117;28;19950;-52
2022/03/27 09:05:22;;;;;;;;;;;;;;;18.17;45.15;103287.81;5127375;28;19914;-55
2022/03/27 09:07:48;;;;;;;;;;;;;;;18.20;44.83;103291.16;5126143;28;19907;-54
2022/03/27 09:10:13;;;;;;;;;;;;;;;18.21;44.75;103287.50;5127300;28;19922;-52
2022/03/27 09:12:38;;;;;;;;;;;;;;;18.22;44.80;103288.34;5126376;28;19912;-56
2022/03/27 09:15:07;;;;;;;;;;;;;;;18.21;44.88;103292.88;5125679;28;19915;-54
2022/03/27 09:17:32;;;;;;;;;;;;;;;18.21;45.04;103289.34;5126948;28;19951;-52
2022/03/27 09:19:57;;;;;;;;;;;;;;;18.20;45.12;103282.22;5110003;28;19912;-54
2022/03/27 09:22:24;;;;;;;;;;;;;;;18.19;45.16;103284.06;5106592;28;19923;-57
2022/03/27 09:24:59;;;;;;;;;;;;;;;18.18;45.21;103290.44;5104957;28;19920;-53
2022/03/27 09:27:29;;;;;;;;;;;;;;;18.17;45.12;103283.28;5110251;28;20261;-55
2022/03/27 09:29:59;;;;;;;;;;;;;;;18.17;45.13;103277.06;5126258;28;19915;-56
2022/03/27 09:32:25;;;;;;;;;;;;;;;18.16;45.25;103275.34;5126701;27;19916;-55
2022/03/27 09:35:01;;;;;;;;;;;;;;;18.17;45.21;103285.13;5126908;28;20600;-56
2022/03/27 09:37:27;;;;;;;;;;;;;;;18.16;45.27;103278.88;5126821;28;19990;-55
2022/03/27 09:39:56;;;;;;;;;;;;;;;18.17;45.33;103277.06;5125269;28;19911;-53
2022/03/27 09:42:21;;;;;;;;;;;;;;;18.15;45.18;103266.41;5126272;28;19908;-54
2022/03/27 09:44:47;;;;;;;;;;;;;;;18.15;45.31;103268.22;5126299;28;19908;-56
2022/03/27 09:47:12;;;;;;;;;;;;;;;18.15;45.28;103271.78;5126125;28;19911;-56
2022/03/27 09:49:38;;;;;;;;;;;;;;;18.16;45.08;103267.25;5126603;28;20277;-56
2022/03/27 09:52:08;;;;;;;;;;;;;;;18.14;45.08;103267.38;5125902;28;19955;-55
2022/03/27 09:54:44;;;;;;;;;;;;;;;18.14;45.21;103274.59;5125354;28;19911;-55
2022/03/27 09:57:18;;;;;;;;;;;;;;;18.14;45.06;103263.81;5125263;28;19915;-54
2022/03/27 09:59:45;;;;;;;;;;;;;;;18.13;45.01;103262.06;5125689;28;19923;-56
2022/03/27 10:02:22;;;;;;;;;;;;;;;18.13;45.29;103257.56;5126242;28;20301;-54
2022/03/27 10:04:54;;;;;;;;;;;;;;;18.13;45.10;103259.38;5125120;28;19908;-55
2022/03/27 10:07:19;;;;;;;;;;;;;;;18.12;45.31;103253.13;5126119;28;19908;-56
2022/03/27 10:09:44;;;;;;;;;;;;;;;18.11;45.31;103253.25;5126140;27;19915;-56
2022/03/27 10:12:10;;;;;;;;;;;;;;;18.10;45.17;103254.22;5125478;28;19911;-56
2022/03/27 10:14:35;;;;;;;;;;;;;;;18.10;45.24;103243.47;5124518;28;20022;-55
2022/03/27 10:17:01;;;;;;;;;;;;;;;18.10;45.15;103254.22;5124625;28;19911;-54
2022/03/27 10:19:29;;;;;;;;;;;;;;;18.09;45.12;103241.72;5113377;28;19930;-54
2022/03/27 10:21:54;;;;;;;;;;;;;;;18.09;44.95;103247.97;5105492;28;19912;-56
2022/03/27 10:24:19;;;;;;;;;;;;;;;18.09;45.00;103239.03;5104177;28;20008;-56
2022/03/27 10:26:45;;;;;;;;;;;;;;;18.09;45.15;103229.13;5105775;28;19921;-56
2022/03/27 10:29:11;;;;;;;;;;;;;;;18.08;45.07;103238.16;5125373;28;19947;-56
2022/03/27 10:31:36;;;;;;;;;;;;;;;18.09;45.02;103236.34;5125690;27;19934;-55
2022/03/27 10:34:02;;;;;;;;;;;;;;;18.09;44.98;103236.34;5125860;28;20362;-55
2022/03/27 10:36:29;;;;;;;;;;;;;;;18.08;44.79;103235.47;5125723;28;20372;-56
2022/03/27 10:39:10;;;;;;;;;;;;;;;18.08;44.81;103230.09;5124079;28;19908;-56
2022/03/27 10:41:42;;;;;;;;;;;;;;;18.08;44.85;103231.94;5125016;28;19966;-56
2022/03/27 10:44:13;;;;;;;;;;;;;;;18.08;44.89;103224.69;5124003;28;19929;-57
2022/03/27 10:46:38;;;;;;;;;;;;;;;18.08;45.10;103227.41;5110910;28;19908;-56
2022/03/27 10:49:13;;;;;;;;;;;;;;;18.08;44.96;103219.31;5104902;28;19919;-56
2022/03/27 10:51:39;;;;;;;;;;;;;;;18.08;44.73;103218.47;5104785;28;19961;-56
2022/03/27 10:54:09;;;;;;;;;;;;;;;18.08;45.00;103221.16;5105051;28;19934;-56
2022/03/27 10:56:38;;;;;;;;;;;;;;;18.08;45.02;103213.94;5104449;28;19915;-56
2022/03/27 10:59:13;;;;;;;;;;;;;;;18.08;45.08;103205.00;5124335;28;20236;-56
2022/03/27 11:01:40;;;;;;;;;;;;;;;18.08;45.09;103205.88;5124057;28;19914;-55
2022/03/27 11:04:08;;;;;;;;;;;;;;;18.08;45.15;103208.56;5124261;28;19919;-55
2022/03/27 11:06:35;;;;;;;;;;;;;;;18.08;45.15;103203.16;5125104;28;19907;-54
2022/03/27 11:09:02;;;;;;;;;;;;;;;18.08;45.07;103195.09;5124859;28;19907;-53
2022/03/27 11:11:33;;;;;;;;;;;;;;;18.09;44.86;103204.88;5124632;28;20331;-56
2022/03/27 11:13:58;;;;;;;;;;;;;;;18.09;44.96;103201.34;5124607;28;19962;-54
2022/03/27 11:16:23;;;;;;;;;;;;;;;18.10;45.18;103200.38;5125075;28;19916;-56
2022/03/27 11:18:49;;;;;;;;;;;;;;;18.10;45.03;103190.47;5123474;28;19915;-55
2022/03/27 11:21:29;;;;;;;;;;;;;;;18.10;45.09;103186.94;5124842;28;19907;-52
2022/03/27 11:23:55;;;;;;;;;;;;;;;18.10;44.98;103187.78;5124766;28;20004;-54
2022/03/27 11:26:20;;;;;;;;;;;;;;;18.11;45.22;103186.81;5124322;28;20337;-56
2022/03/27 11:28:52;;;;;;;;;;;;;;;18.11;45.08;103178.72;5123625;28;19934;-54
2022/03/27 11:31:25;;;;;;;;;;;;;;;18.12;45.14;103174.22;5123552;28;20413;-56
2022/03/27 11:34:08;;;;;;;;;;;;;;;18.12;45.24;103172.38;5124559;28;19940;-55
2022/03/27 11:36:34;;;;;;;;;;;;;;;18.13;45.01;103165.16;5124523;28;20303;-55
2022/03/27 11:39:03;;;;;;;;;;;;;;;18.13;45.08;103168.69;5124528;28;19918;-54
2022/03/27 11:41:43;;;;;;;;;;;;;;;18.14;45.42;103169.59;5124349;28;19914;-55
2022/03/27 11:44:18;;;;;;;;;;;;;;;18.14;45.22;103161.50;5124388;28;19915;-55
2022/03/27 11:46:44;;;;;;;;;;;;;;;18.14;45.49;103159.69;5124596;28;19908;-56
2022/03/27 11:49:09;;;;;;;;;;;;;;;18.15;45.59;103161.41;5124710;28;19907;-52
2022/03/27 11:51:34;;;;;;;;;;;;;;;18.16;45.78;103162.25;5124238;28;20247;-56
2022/03/27 11:53:59;;;;;;;;;;;;;;;18.15;45.48;103158.69;5124717;28;19908;-55
2022/03/27 11:56:24;;;;;;;;;;;;;;;18.16;45.52;103152.34;5123797;28;19908;-54
2022/03/27 11:59:12;;;;;;;;;;;;;;;18.17;45.67;103151.34;5122409;28;20006;-50
2022/03/27 12:01:37;;;;;;;;;;;;;;;18.18;45.72;103152.22;5123234;28;20400;-56
2022/03/27 12:04:04;;;;;;;;;;;;;;;18.17;45.57;103151.34;5124571;28;19912;-55
2022/03/27 12:06:29;;;;;;;;;;;;;;;18.18;45.88;103147.72;5122994;28;19908;-55
2022/03/27 12:08:55;;;;;;;;;;;;;;;18.18;45.93;103144.13;5124159;28;19915;-55
2022/03/27 12:11:20;;;;;;;;;;;;;;;18.19;45.85;103137.81;5123937;28;19913;-53
2022/03/27 12:13:46;;;;;;;;;;;;;;;18.19;45.87;103130.59;5123771;28;19929;-54
2022/03/27 12:16:15;;;;;;;;;;;;;;;18.21;45.64;103134.00;5127990;28;19908;-56
2022/03/27 12:18:40;;;;;;;;;;;;;;;18.21;45.74;103127.78;5128167;28;20428;-55
2022/03/27 12:21:06;;;;;;;;;;;;;;;18.22;45.92;103125.00;5128589;28;19907;-52
2022/03/27 12:23:32;;;;;;;;;;;;;;;18.23;45.77;103121.31;5128378;28;20288;-55
2022/03/27 12:25:59;;;;;;;;;;;;;;;18.26;46.03;103122.91;5126419;28;19912;-56
2022/03/27 12:31:21;;;;;;;;;;;;;;;18.30;45.66;103112.78;5128226;28;19929;-54
2022/03/27 12:33:47;;;;;;;;;;;;;;;18.32;45.55;103109.03;5126604;28;19924;-56
2022/03/27 12:36:13;;;;;;;;;;;;;;;18.37;45.54;103106.00;5126910;28;19908;-56
2022/03/27 12:38:39;;;;;;;;;;;;;;;18.40;45.50;103105.78;5127714;27;19907;-55